Estación Meteorológica Peña el Pijo (Robertgarden) [ 11/17/17 23:50:27 CET ]

Fecha Hora Presion(HPa) Temp (°C) Humedad % Rocio (°C) Viento ( m/s) Direccion Lluvia 1Hora(mm) Lluvia 24H(mm) LLuvia Total(mm)
2017-Sep-15 01:01:41 1009.400 20.0 41 6.3         1457.65
2017-Sep-15 02:01:40 1009.000 19.3 44 6.7         1457.65
2017-Sep-15 03:01:39 1008.800 17.6 48 6.4         1457.65
2017-Sep-15 04:01:36 1008.000 15.9 52 6.0         1457.65
2017-Sep-15 05:01:37 1007.700 14.9 57 6.4         1457.65
2017-Sep-15 06:01:37 1007.100 14.8 58 6.6         1457.65
2017-Sep-15 07:01:40 1006.600 15.2 58 7.0         1457.65
2017-Sep-15 08:01:45 1006.400 15.1 58 6.9         1457.65
2017-Sep-15 09:01:41 1006.300 16.7 58 8.4         1457.65
2017-Sep-15 10:01:46 1006.300 19.4 57 10.6         1457.65
2017-Sep-15 11:01:51 1006.300 22.3 36 6.4 0.9 NNW     1457.65
2017-Sep-15 12:01:56 1006.000 26.9 29 7.3         1457.65
2017-Sep-15 13:01:46 1005.100 28.4 25 6.2         1457.65
2017-Sep-15 14:01:41 1004.900 28.0 24 5.3         1457.65
2017-Sep-15 15:01:42 1004.400 28.8 23 5.4         1457.65
2017-Sep-15 16:01:44 1004.200 28.6 21 4.1 1.3 SW     1457.65
2017-Sep-15 17:01:58 1003.900 27.9 23 4.7         1457.65
2017-Sep-15 18:01:45 1004.000 26.3 20 1.6         1457.65
2017-Sep-15 19:01:46 1004.400 24.9 20 0.4 0.6 WNW     1457.65
2017-Sep-15 20:01:52 1004.700 20.7 18 -4.8         1457.65
2017-Sep-15 21:01:42 1005.100 15.8 28 -2.8         1457.65
2017-Sep-15 22:01:45 1005.700 13.8 35 -1.5         1457.65
2017-Sep-15 23:01:47 1005.500 13.2 38 -0.9         1457.65

Temperatura Máxima:28°    Temperatura Mínima:13°
Presión Máxima:1009.400 Hpa    Presión Mínima:1003.900 Hpa


Volver